Vernon, Wisconsin
Current Conditions -  °F | °C
As of 6:45 AM on Tuesday 21 Oct 2014 (Local Time) from KUES Reporting Station
Broken Clouds Broken Clouds  
Wind Chill: 38°   Ceiling: 4900
Heat Index: 41°   Visibility: 10mi
Dew Point: 36°   Wind: 5mph
Humidity: 81%   Direction: 340°NNW
Pressure: 30.13"   Gusts: NA
Location:  42.9962°N, 88.3115°W
Report Text: KUES 211145Z 34004KT 10SM BKN049 05/02 A3013
Loading
Personal Weather Stations






























Interactive Weather Map
Tropical Storm Tracking
New forecast layout! Learn more

10-Day Weather Forecast

Advertisements
Track Severe Weather on mobile